Time;durP1;ratioP1;P1;durP2;ratioP2;P2;SDS_P1;SDS_P2;PMS_P1;PMS_P2;Temp;Humidity;BMP_temperature;BMP_pressure;BME280_temperature;BME280_humidity;BME280_pressure;Samples;Min_cycle;Max_cycle;Signal;HPM_P1;HPM_P2
2023/05/06 00:01:43;;;;;;;7.00;5.10;;;;;;;-128.00;-1.00;-1.00;97837;294;1003273;-31
2023/05/06 00:04:08;;;;;;;18.50;8.50;;;;;;;-128.00;-1.00;-1.00;97862;294;1003308;-29
2023/05/06 00:06:34;;;;;;;7.40;5.70;;;;;;;-128.00;-1.00;-1.00;97944;294;1003259;-33
2023/05/06 00:09:00;;;;;;;9.70;7.30;;;;;;;-128.00;-1.00;-1.00;98036;294;1003496;-29
2023/05/06 00:11:26;;;;;;;6.20;3.90;;;;;;;-128.00;-1.00;-1.00;97924;294;1004851;-31
2023/05/06 00:13:51;;;;;;;6.40;4.00;;;;;;;-128.00;-1.00;-1.00;97867;296;1002863;-35
2023/05/06 00:16:17;;;;;;;9.70;8.60;;;;;;;-128.00;-1.00;-1.00;97832;294;1003503;-30
2023/05/06 00:18:42;;;;;;;5.80;4.00;;;;;;;-128.00;-1.00;-1.00;98052;294;1002842;-29
2023/05/06 00:21:08;;;;;;;3.40;2.70;;;;;;;-128.00;-1.00;-1.00;98006;294;1004119;-29
2023/05/06 00:23:34;;;;;;;8.20;3.70;;;;;;;-128.00;-1.00;-1.00;97819;294;1003700;-33
2023/05/06 00:26:00;;;;;;;7.10;3.40;;;;;;;-128.00;-1.00;-1.00;97820;294;1004890;-31
2023/05/06 00:28:25;;;;;;;7.40;5.30;;;;;;;-128.00;-1.00;-1.00;97826;294;1003285;-33
2023/05/06 00:30:51;;;;;;;13.10;9.70;;;;;;;-128.00;-1.00;-1.00;97892;294;1004808;-34
2023/05/06 00:33:16;;;;;;;11.30;10.10;;;;;;;-128.00;-1.00;-1.00;98028;294;1003918;-29
2023/05/06 00:35:42;;;;;;;9.40;8.50;;;;;;;-128.00;-1.00;-1.00;97954;283;1003045;-29
2023/05/06 00:38:09;;;;;;;13.60;11.70;;;;;;;-128.00;-1.00;-1.00;97981;294;1004597;-29
2023/05/06 00:40:35;;;;;;;18.80;14.90;;;;;;;-128.00;-1.00;-1.00;97909;295;1002343;-33
2023/05/06 00:43:01;;;;;;;8.00;6.30;;;;;;;-128.00;-1.00;-1.00;97899;294;1003954;-33
2023/05/06 00:45:27;;;;;;;24.30;8.30;;;;;;;-128.00;-1.00;-1.00;97984;295;1003837;-34
2023/05/06 00:47:53;;;;;;;23.00;15.00;;;;;;;-128.00;-1.00;-1.00;97833;294;1002852;-30
2023/05/06 00:50:19;;;;;;;6.90;5.40;;;;;;;-128.00;-1.00;-1.00;98000;295;1002949;-29
2023/05/06 00:52:45;;;;;;;24.10;17.00;;;;;;;-128.00;-1.00;-1.00;97930;284;1002575;-33
2023/05/06 00:55:10;;;;;;;19.00;11.90;;;;;;;-128.00;-1.00;-1.00;97855;295;1005147;-33
2023/05/06 00:57:36;;;;;;;5.70;5.00;;;;;;;-128.00;-1.00;-1.00;97994;295;1003241;-29
2023/05/06 01:00:03;;;;;;;18.60;16.00;;;;;;;-128.00;-1.00;-1.00;97193;295;1003986;-30
2023/05/06 01:02:28;;;;;;;8.00;4.50;;;;;;;-128.00;-1.00;-1.00;98029;295;1002875;-30
2023/05/06 01:04:54;;;;;;;14.30;11.00;;;;;;;-128.00;-1.00;-1.00;97918;295;1003508;-34
2023/05/06 01:07:45;;;;;;;8.90;6.50;;;;;;;-128.00;-1.00;-1.00;97142;295;1002679;-35
2023/05/06 01:10:20;;;;;;;6.80;4.60;;;;;;;-128.00;-1.00;-1.00;97873;295;1003896;-34
2023/05/06 01:13:00;;;;;;;6.70;5.60;;;;;;;-128.00;-1.00;-1.00;97836;295;1003355;-30
2023/05/06 01:15:41;;;;;;;17.60;8.20;;;;;;;-128.00;-1.00;-1.00;97860;295;1003716;-33
2023/05/06 01:18:09;;;;;;;6.80;4.90;;;;;;;-128.00;-1.00;-1.00;97864;295;1003009;-33
2023/05/06 01:20:37;;;;;;;9.60;5.80;;;;;;;-128.00;-1.00;-1.00;97808;295;1003179;-30
2023/05/06 01:23:08;;;;;;;9.80;7.70;;;;;;;-128.00;-1.00;-1.00;97913;295;1004406;-33
2023/05/06 01:25:34;;;;;;;8.20;5.60;;;;;;;-128.00;-1.00;-1.00;97817;295;1003033;-29
2023/05/06 01:28:00;;;;;;;4.90;4.30;;;;;;;-128.00;-1.00;-1.00;97872;283;1004221;-31
2023/05/06 01:30:27;;;;;;;5.30;3.40;;;;;;;-128.00;-1.00;-1.00;97978;295;1003044;-30
2023/05/06 01:33:06;;;;;;;10.80;5.00;;;;;;;-128.00;-1.00;-1.00;97850;295;1003011;-34
2023/05/06 01:35:40;;;;;;;16.80;7.10;;;;;;;-128.00;-1.00;-1.00;98016;295;1002345;-29
2023/05/06 01:38:23;;;;;;;5.20;4.50;;;;;;;-128.00;-1.00;-1.00;97907;295;1004075;-33
2023/05/06 01:40:53;;;;;;;30.00;8.20;;;;;;;-128.00;-1.00;-1.00;97969;295;1002493;-29
2023/05/06 01:43:18;;;;;;;8.20;4.20;;;;;;;-128.00;-1.00;-1.00;97934;295;1003786;-33
2023/05/06 01:45:48;;;;;;;6.80;4.80;;;;;;;-128.00;-1.00;-1.00;97990;295;1003324;-29
2023/05/06 01:48:14;;;;;;;5.90;5.40;;;;;;;-128.00;-1.00;-1.00;97874;295;1002650;-28
2023/05/06 01:50:39;;;;;;;9.40;7.30;;;;;;;-128.00;-1.00;-1.00;97907;295;1003122;-29
2023/05/06 01:53:05;;;;;;;6.50;4.20;;;;;;;-128.00;-1.00;-1.00;97932;295;1003584;-34
2023/05/06 01:55:31;;;;;;;9.40;5.50;;;;;;;-128.00;-1.00;-1.00;97792;297;1004614;-31
2023/05/06 01:57:57;;;;;;;8.50;5.70;;;;;;;-128.00;-1.00;-1.00;97958;295;1003472;-33
2023/05/06 02:00:26;;;;;;;5.50;3.30;;;;;;;-128.00;-1.00;-1.00;98001;295;1002682;-29
2023/05/06 02:02:51;;;;;;;7.20;4.40;;;;;;;-128.00;-1.00;-1.00;97863;295;1002977;-29
2023/05/06 02:05:17;;;;;;;8.40;4.30;;;;;;;-128.00;-1.00;-1.00;97887;295;1003823;-33
2023/05/06 02:07:42;;;;;;;6.80;4.70;;;;;;;-128.00;-1.00;-1.00;97922;295;1003258;-30
2023/05/06 02:10:08;;;;;;;13.40;5.90;;;;;;;-128.00;-1.00;-1.00;97796;296;1002747;-34
2023/05/06 02:12:34;;;;;;;3.90;2.90;;;;;;;-128.00;-1.00;-1.00;97954;295;1003226;-34
2023/05/06 02:14:59;;;;;;;7.60;6.40;;;;;;;-128.00;-1.00;-1.00;97803;295;1003929;-30
2023/05/06 02:17:25;;;;;;;6.70;3.70;;;;;;;-128.00;-1.00;-1.00;97942;295;1004420;-31
2023/05/06 02:19:51;;;;;;;5.50;4.50;;;;;;;-128.00;-1.00;-1.00;97770;295;1005372;-30
2023/05/06 02:22:16;;;;;;;3.90;2.70;;;;;;;-128.00;-1.00;-1.00;97838;295;1002729;-33
2023/05/06 02:24:42;;;;;;;5.20;4.60;;;;;;;-128.00;-1.00;-1.00;98027;295;1003355;-29
2023/05/06 02:27:07;;;;;;;4.00;3.40;;;;;;;-128.00;-1.00;-1.00;97809;295;1004919;-29
2023/05/06 02:29:33;;;;;;;15.10;3.90;;;;;;;-128.00;-1.00;-1.00;97896;295;1003610;-36
2023/05/06 02:31:58;;;;;;;7.10;3.40;;;;;;;-128.00;-1.00;-1.00;98011;295;1003203;-33
2023/05/06 02:34:24;;;;;;;4.70;4.20;;;;;;;-128.00;-1.00;-1.00;97920;295;1003659;-33
2023/05/06 02:36:49;;;;;;;7.50;4.60;;;;;;;-128.00;-1.00;-1.00;97836;295;1003139;-29
2023/05/06 02:39:15;;;;;;;9.10;3.70;;;;;;;-128.00;-1.00;-1.00;97847;295;1003395;-29
2023/05/06 02:41:41;;;;;;;6.90;4.60;;;;;;;-128.00;-1.00;-1.00;98046;295;1002844;-29
2023/05/06 02:44:06;;;;;;;11.90;6.20;;;;;;;-128.00;-1.00;-1.00;97833;295;1004675;-33
2023/05/06 02:46:32;;;;;;;8.40;4.80;;;;;;;-128.00;-1.00;-1.00;97756;296;1002894;-30
2023/05/06 02:48:57;;;;;;;6.00;4.50;;;;;;;-128.00;-1.00;-1.00;97936;295;1002924;-33
2023/05/06 02:51:23;;;;;;;5.30;3.40;;;;;;;-128.00;-1.00;-1.00;97923;295;1004082;-29
2023/05/06 02:53:49;;;;;;;7.30;5.10;;;;;;;-128.00;-1.00;-1.00;97948;295;1003929;-33
2023/05/06 02:56:15;;;;;;;6.60;5.10;;;;;;;-128.00;-1.00;-1.00;97811;295;1002294;-33
2023/05/06 02:58:42;;;;;;;6.30;4.40;;;;;;;-128.00;-1.00;-1.00;97944;283;1003333;-33
2023/05/06 03:01:08;;;;;;;13.80;9.50;;;;;;;-128.00;-1.00;-1.00;97968;295;1003071;-33
2023/05/06 03:03:34;;;;;;;9.70;7.80;;;;;;;-128.00;-1.00;-1.00;97811;296;1003639;-35
2023/05/06 03:05:59;;;;;;;8.30;4.20;;;;;;;-128.00;-1.00;-1.00;97973;295;1004922;-34
2023/05/06 03:08:25;;;;;;;7.60;6.70;;;;;;;-128.00;-1.00;-1.00;98024;295;1003924;-34
2023/05/06 03:10:51;;;;;;;6.50;5.40;;;;;;;-128.00;-1.00;-1.00;97854;295;1003651;-29
2023/05/06 03:13:16;;;;;;;6.20;4.20;;;;;;;-128.00;-1.00;-1.00;98044;295;1003243;-31
2023/05/06 03:15:42;;;;;;;11.20;6.10;;;;;;;-128.00;-1.00;-1.00;97870;295;1003752;-29
2023/05/06 03:18:07;;;;;;;14.40;5.10;;;;;;;-128.00;-1.00;-1.00;97820;295;1003178;-31
2023/05/06 03:20:33;;;;;;;11.20;6.90;;;;;;;-128.00;-1.00;-1.00;98046;295;1003423;-29
2023/05/06 03:22:59;;;;;;;11.40;10.30;;;;;;;-128.00;-1.00;-1.00;97942;295;1002761;-33
2023/05/06 03:25:24;;;;;;;6.20;5.40;;;;;;;-128.00;-1.00;-1.00;97843;284;1003353;-30
2023/05/06 03:27:50;;;;;;;10.10;7.70;;;;;;;-128.00;-1.00;-1.00;97850;295;1003728;-35
2023/05/06 03:30:15;;;;;;;8.10;7.30;;;;;;;-128.00;-1.00;-1.00;97974;287;1002518;-30
2023/05/06 03:32:41;;;;;;;13.10;5.00;;;;;;;-128.00;-1.00;-1.00;98072;295;1003482;-31
2023/05/06 03:35:07;;;;;;;10.50;8.40;;;;;;;-128.00;-1.00;-1.00;97873;295;1003439;-29
2023/05/06 03:37:33;;;;;;;7.00;5.10;;;;;;;-128.00;-1.00;-1.00;97774;295;1004174;-32
2023/05/06 03:39:59;;;;;;;5.40;4.10;;;;;;;-128.00;-1.00;-1.00;97879;295;1002935;-33
2023/05/06 03:42:25;;;;;;;13.30;6.60;;;;;;;-128.00;-1.00;-1.00;97832;297;1003495;-33
2023/05/06 03:44:51;;;;;;;16.10;11.20;;;;;;;-128.00;-1.00;-1.00;97905;295;1004388;-33
2023/05/06 03:47:17;;;;;;;5.10;3.40;;;;;;;-128.00;-1.00;-1.00;97827;295;1003093;-33
2023/05/06 03:49:42;;;;;;;10.10;5.10;;;;;;;-128.00;-1.00;-1.00;97953;295;1003006;-29
2023/05/06 03:52:08;;;;;;;9.00;8.10;;;;;;;-128.00;-1.00;-1.00;97841;295;1003694;-29
2023/05/06 03:54:33;;;;;;;6.70;5.60;;;;;;;-128.00;-1.00;-1.00;97888;297;1003681;-33
2023/05/06 03:56:59;;;;;;;6.90;5.20;;;;;;;-128.00;-1.00;-1.00;98002;295;1003504;-30
2023/05/06 03:59:24;;;;;;;7.60;4.60;;;;;;;-128.00;-1.00;-1.00;97806;295;1004763;-33
2023/05/06 04:01:50;;;;;;;4.70;3.90;;;;;;;-128.00;-1.00;-1.00;98058;295;1002728;-33
2023/05/06 04:04:16;;;;;;;8.50;4.10;;;;;;;-128.00;-1.00;-1.00;97956;295;1003132;-30
2023/05/06 04:06:42;;;;;;;6.70;4.90;;;;;;;-128.00;-1.00;-1.00;98017;295;1004111;-34
2023/05/06 04:09:08;;;;;;;7.90;3.60;;;;;;;-128.00;-1.00;-1.00;97966;295;1002825;-33
2023/05/06 04:11:34;;;;;;;5.90;4.20;;;;;;;-128.00;-1.00;-1.00;97783;295;1003486;-33
2023/05/06 04:14:00;;;;;;;13.70;4.00;;;;;;;-128.00;-1.00;-1.00;97960;295;1004043;-31
2023/05/06 04:16:26;;;;;;;7.50;4.00;;;;;;;-128.00;-1.00;-1.00;97885;295;1002824;-34
2023/05/06 04:18:51;;;;;;;16.90;7.00;;;;;;;-128.00;-1.00;-1.00;97907;295;1003465;-34
2023/05/06 04:21:17;;;;;;;15.20;4.50;;;;;;;-128.00;-1.00;-1.00;97797;295;1003767;-30
2023/05/06 04:23:43;;;;;;;5.90;3.20;;;;;;;-128.00;-1.00;-1.00;97741;297;1003314;-30
2023/05/06 04:26:09;;;;;;;6.20;4.60;;;;;;;-128.00;-1.00;-1.00;97859;297;1003735;-28
2023/05/06 04:28:34;;;;;;;11.30;3.50;;;;;;;-128.00;-1.00;-1.00;97940;295;1002686;-30
2023/05/06 04:31:01;;;;;;;5.70;4.80;;;;;;;-128.00;-1.00;-1.00;98018;295;1003006;-29
2023/05/06 04:33:28;;;;;;;7.60;4.20;;;;;;;-128.00;-1.00;-1.00;97863;295;1002934;-35
2023/05/06 04:35:54;;;;;;;4.10;3.30;;;;;;;-128.00;-1.00;-1.00;97935;295;1004410;-30
2023/05/06 04:38:21;;;;;;;8.00;3.40;;;;;;;-128.00;-1.00;-1.00;97885;295;1003107;-34
2023/05/06 05:19:58;;;;;;;10.40;2.70;;;;;;;-100.63;15.65;19890.77;98301;295;1543893;-35
2023/05/06 05:22:24;;;;;;;3.70;2.70;;;;;;;-128.00;-1.00;-1.00;97415;294;1003156;-33
2023/05/06 05:24:50;;;;;;;3.90;2.40;;;;;;;-128.00;-1.00;-1.00;97835;294;1003055;-29
2023/05/06 05:27:19;;;;;;;3.10;2.70;;;;;;;-128.00;-1.00;-1.00;97893;294;1003565;-34
2023/05/06 05:29:44;;;;;;;3.20;2.30;;;;;;;-128.00;-1.00;-1.00;97958;294;1004941;-30
2023/05/06 05:32:10;;;;;;;7.80;3.80;;;;;;;-128.00;-1.00;-1.00;97816;283;1004260;-31
2023/05/06 05:34:36;;;;;;;6.00;3.20;;;;;;;-128.00;-1.00;-1.00;97847;294;1003188;-30
2023/05/06 05:37:01;;;;;;;6.10;3.10;;;;;;;-128.00;-1.00;-1.00;97825;294;1003217;-34
2023/05/06 05:39:27;;;;;;;4.80;3.40;;;;;;;-128.00;-1.00;-1.00;97834;295;1003349;-30
2023/05/06 05:41:53;;;;;;;5.40;3.00;;;;;;;-128.00;-1.00;-1.00;97796;294;1003185;-29
2023/05/06 05:44:19;;;;;;;5.80;2.60;;;;;;;-128.00;-1.00;-1.00;97854;294;1003192;-33
2023/05/06 05:46:44;;;;;;;5.10;3.10;;;;;;;-128.00;-1.00;-1.00;97819;294;1003663;-33
2023/05/06 05:49:10;;;;;;;4.30;3.40;;;;;;;-128.00;-1.00;-1.00;97857;294;1004086;-29
2023/05/06 05:51:35;;;;;;;7.00;3.10;;;;;;;-128.00;-1.00;-1.00;97818;295;1002872;-33
2023/05/06 05:54:01;;;;;;;4.20;2.70;;;;;;;-128.00;-1.00;-1.00;97834;296;1003927;-35
2023/05/06 05:56:26;;;;;;;3.30;2.50;;;;;;;-128.00;-1.00;-1.00;97858;294;1003332;-34
2023/05/06 05:58:52;;;;;;;5.00;3.60;;;;;;;-128.00;-1.00;-1.00;97829;294;1003008;-30
2023/05/06 06:01:18;;;;;;;4.50;3.00;;;;;;;-128.00;-1.00;-1.00;97845;294;1003390;-36
2023/05/06 06:03:43;;;;;;;5.10;3.00;;;;;;;-128.00;-1.00;-1.00;97871;287;1003530;-29
2023/05/06 06:06:09;;;;;;;7.80;2.30;;;;;;;-128.00;-1.00;-1.00;97872;294;1004221;-34
2023/05/06 06:08:34;;;;;;;3.70;2.30;;;;;;;-128.00;-1.00;-1.00;97815;294;1003660;-33
2023/05/06 06:11:02;;;;;;;4.80;2.80;;;;;;;-128.00;-1.00;-1.00;97922;294;1003212;-34
2023/05/06 06:13:28;;;;;;;4.70;3.80;;;;;;;-128.00;-1.00;-1.00;97783;294;1003887;-29
2023/05/06 06:15:55;;;;;;;7.60;3.80;;;;;;;-128.00;-1.00;-1.00;97864;283;1002938;-39
2023/05/06 06:18:21;;;;;;;7.40;3.50;;;;;;;-128.00;-1.00;-1.00;97978;283;1003090;-29
2023/05/06 06:20:47;;;;;;;6.50;3.50;;;;;;;-128.00;-1.00;-1.00;97842;295;1003096;-33
2023/05/06 06:23:12;;;;;;;8.40;3.00;;;;;;;-128.00;-1.00;-1.00;97790;295;1003188;-35
2023/05/06 06:25:38;;;;;;;6.10;3.70;;;;;;;-128.00;-1.00;-1.00;97805;295;1003986;-29
2023/05/06 06:28:04;;;;;;;6.20;3.40;;;;;;;-128.00;-1.00;-1.00;97898;295;1003753;-31
2023/05/06 06:30:30;;;;;;;3.30;2.60;;;;;;;-128.00;-1.00;-1.00;97803;295;1004063;-30
2023/05/06 06:32:57;;;;;;;5.20;3.00;;;;;;;-128.00;-1.00;-1.00;98000;295;1004297;-34
2023/05/06 06:35:23;;;;;;;7.30;3.60;;;;;;;-128.00;-1.00;-1.00;97932;288;1003498;-34
2023/05/06 06:37:49;;;;;;;5.50;3.80;;;;;;;-128.00;-1.00;-1.00;97805;295;1003902;-34
2023/05/06 06:40:15;;;;;;;4.20;3.40;;;;;;;-128.00;-1.00;-1.00;97836;295;1004856;-33
2023/05/06 06:42:41;;;;;;;3.40;2.70;;;;;;;-128.00;-1.00;-1.00;97985;295;1003439;-29
2023/05/06 06:45:07;;;;;;;8.10;4.20;;;;;;;-128.00;-1.00;-1.00;97841;295;1003035;-35
2023/05/06 06:47:34;;;;;;;9.50;3.20;;;;;;;-128.00;-1.00;-1.00;97991;295;1003184;-29
2023/05/06 06:50:00;;;;;;;4.00;2.80;;;;;;;-128.00;-1.00;-1.00;97928;295;1004155;-35
2023/05/06 06:52:25;;;;;;;10.40;3.10;;;;;;;-128.00;-1.00;-1.00;97891;295;1003742;-29
2023/05/06 06:54:51;;;;;;;10.60;3.90;;;;;;;-128.00;-1.00;-1.00;97982;295;1003393;-32
2023/05/06 06:57:17;;;;;;;4.40;2.90;;;;;;;-128.00;-1.00;-1.00;97755;295;1003030;-33
2023/05/06 06:59:43;;;;;;;5.30;3.30;;;;;;;-128.00;-1.00;-1.00;98014;295;1003735;-30
2023/05/06 07:02:09;;;;;;;7.10;3.10;;;;;;;-128.00;-1.00;-1.00;97791;295;1003499;-33
2023/05/06 07:04:35;;;;;;;23.80;4.00;;;;;;;-128.00;-1.00;-1.00;97809;295;1004198;-29
2023/05/06 07:07:00;;;;;;;7.20;4.10;;;;;;;-128.00;-1.00;-1.00;97887;295;1002941;-30
2023/05/06 07:09:26;;;;;;;3.10;2.20;;;;;;;-128.00;-1.00;-1.00;97867;295;1005324;-35
2023/05/06 07:11:51;;;;;;;4.70;2.80;;;;;;;-128.00;-1.00;-1.00;97900;295;1005007;-35
2023/05/06 07:14:17;;;;;;;2.80;2.10;;;;;;;-128.00;-1.00;-1.00;97860;285;1003364;-30
2023/05/06 07:16:43;;;;;;;9.90;2.70;;;;;;;-128.00;-1.00;-1.00;97835;295;1003800;-36
2023/05/06 07:19:08;;;;;;;5.60;4.10;;;;;;;-128.00;-1.00;-1.00;97947;295;1003795;-34
2023/05/06 07:21:34;;;;;;;4.30;2.90;;;;;;;-128.00;-1.00;-1.00;97871;285;1003546;-34
2023/05/06 07:23:59;;;;;;;10.20;3.70;;;;;;;-128.00;-1.00;-1.00;97837;295;1003099;-34
2023/05/06 07:26:25;;;;;;;13.50;3.60;;;;;;;-128.00;-1.00;-1.00;97826;295;1003393;-33
2023/05/06 07:28:51;;;;;;;10.40;4.00;;;;;;;-128.00;-1.00;-1.00;97857;295;1003408;-33
2023/05/06 07:31:19;;;;;;;6.80;3.00;;;;;;;-128.00;-1.00;-1.00;97969;295;1002948;-29
2023/05/06 07:33:46;;;;;;;4.80;3.10;;;;;;;-128.00;-1.00;-1.00;98001;295;1003259;-29
2023/05/06 07:36:12;;;;;;;6.40;4.70;;;;;;;-128.00;-1.00;-1.00;97879;295;1003010;-32
2023/05/06 07:38:38;;;;;;;10.80;4.00;;;;;;;-128.00;-1.00;-1.00;97812;295;1003796;-33
2023/05/06 07:41:03;;;;;;;8.00;3.60;;;;;;;-128.00;-1.00;-1.00;97876;295;1003695;-34
2023/05/06 07:43:29;;;;;;;9.10;4.60;;;;;;;-128.00;-1.00;-1.00;97858;295;1003375;-29
2023/05/06 07:46:01;;;;;;;5.10;4.00;;;;;;;-128.00;-1.00;-1.00;97835;295;1004098;-29
2023/05/06 07:48:30;;;;;;;10.60;4.00;;;;;;;-128.00;-1.00;-1.00;97866;295;1003402;-33
2023/05/06 07:50:56;;;;;;;4.70;2.90;;;;;;;-128.00;-1.00;-1.00;97923;295;1004319;-30
2023/05/06 07:53:21;;;;;;;4.10;3.40;;;;;;;-128.00;-1.00;-1.00;97883;295;1003164;-31
2023/05/06 07:55:47;;;;;;;6.50;3.50;;;;;;;-128.00;-1.00;-1.00;97900;295;1003777;-33
2023/05/06 07:58:13;;;;;;;5.00;2.90;;;;;;;-128.00;-1.00;-1.00;97920;295;1003769;-29
2023/05/06 08:00:39;;;;;;;5.60;2.60;;;;;;;-128.00;-1.00;-1.00;97930;295;1002874;-34
2023/05/06 08:03:04;;;;;;;4.80;4.40;;;;;;;-128.00;-1.00;-1.00;97927;295;1004414;-36
2023/05/06 08:05:30;;;;;;;4.00;2.40;;;;;;;-128.00;-1.00;-1.00;97915;295;1003166;-34
2023/05/06 08:07:56;;;;;;;4.10;2.90;;;;;;;-128.00;-1.00;-1.00;97965;295;1004132;-31
2023/05/06 08:10:22;;;;;;;4.70;3.20;;;;;;;-128.00;-1.00;-1.00;97945;285;1003079;-35
2023/05/06 08:12:47;;;;;;;4.90;3.00;;;;;;;-128.00;-1.00;-1.00;97720;295;1003027;-30
2023/05/06 08:15:13;;;;;;;4.50;3.10;;;;;;;-128.00;-1.00;-1.00;97865;295;1003469;-34
2023/05/06 08:17:39;;;;;;;7.30;4.70;;;;;;;-128.00;-1.00;-1.00;97838;295;1003416;-34
2023/05/06 08:20:06;;;;;;;7.30;4.60;;;;;;;-128.00;-1.00;-1.00;97907;295;1005316;-34
2023/05/06 08:22:32;;;;;;;4.60;2.50;;;;;;;-128.00;-1.00;-1.00;97929;295;1004463;-38
2023/05/06 08:24:57;;;;;;;12.80;3.10;;;;;;;-128.00;-1.00;-1.00;97916;295;1003963;-34
2023/05/06 08:27:23;;;;;;;8.30;3.90;;;;;;;-128.00;-1.00;-1.00;97806;295;1002913;-30
2023/05/06 08:29:50;;;;;;;11.80;5.90;;;;;;;-128.00;-1.00;-1.00;98013;295;1003209;-34
2023/05/06 08:32:15;;;;;;;7.80;5.20;;;;;;;-128.00;-1.00;-1.00;97743;295;1002971;-30
2023/05/06 08:34:41;;;;;;;17.50;6.80;;;;;;;-128.00;-1.00;-1.00;98040;295;1002925;-34
2023/05/06 08:37:07;;;;;;;11.00;5.30;;;;;;;-128.00;-1.00;-1.00;97898;295;1003305;-29
2023/05/06 08:39:32;;;;;;;10.20;6.10;;;;;;;-128.00;-1.00;-1.00;97832;295;1003427;-30
2023/05/06 08:42:00;;;;;;;6.30;5.30;;;;;;;-128.00;-1.00;-1.00;97918;295;1003032;-31
2023/05/06 08:44:26;;;;;;;14.40;4.20;;;;;;;-128.00;-1.00;-1.00;97899;295;1003334;-34
2023/05/06 08:46:52;;;;;;;6.30;4.20;;;;;;;-128.00;-1.00;-1.00;97872;295;1004331;-30
2023/05/06 08:49:17;;;;;;;14.40;6.30;;;;;;;-128.00;-1.00;-1.00;97825;295;1003348;-35
2023/05/06 08:51:44;;;;;;;12.70;4.20;;;;;;;-128.00;-1.00;-1.00;97806;295;1003070;-29
2023/05/06 08:54:11;;;;;;;6.60;4.00;;;;;;;-128.00;-1.00;-1.00;97856;295;1003281;-34
2023/05/06 08:56:38;;;;;;;6.00;3.70;;;;;;;-128.00;-1.00;-1.00;97915;295;1003169;-32
2023/05/06 08:59:05;;;;;;;8.60;4.80;;;;;;;-128.00;-1.00;-1.00;97858;295;1003477;-32
2023/05/06 09:01:31;;;;;;;6.60;4.70;;;;;;;-128.00;-1.00;-1.00;97882;295;1002855;-38
2023/05/06 09:03:57;;;;;;;11.70;6.10;;;;;;;-128.00;-1.00;-1.00;97973;295;1004868;-37
2023/05/06 09:06:23;;;;;;;10.10;4.30;;;;;;;-128.00;-1.00;-1.00;97897;295;1003984;-35
2023/05/06 09:08:49;;;;;;;4.70;4.10;;;;;;;-128.00;-1.00;-1.00;97816;295;1003420;-37
2023/05/06 09:11:23;;;;;;;9.40;6.80;;;;;;;-128.00;-1.00;-1.00;97934;295;1003052;-31
2023/05/06 09:13:49;;;;;;;15.60;7.30;;;;;;;-128.00;-1.00;-1.00;98062;295;1003150;-33
2023/05/06 09:16:30;;;;;;;11.40;5.30;;;;;;;-128.00;-1.00;-1.00;97928;295;1003190;-31
2023/05/06 09:18:56;;;;;;;6.70;5.30;;;;;;;-128.00;-1.00;-1.00;97951;295;1003280;-38
2023/05/06 09:21:29;;;;;;;13.10;6.60;;;;;;;-128.00;-1.00;-1.00;97939;295;1002772;-35
2023/05/06 09:23:54;;;;;;;4.80;3.90;;;;;;;-128.00;-1.00;-1.00;97825;288;1003035;-32
2023/05/06 09:26:22;;;;;;;10.80;5.10;;;;;;;-128.00;-1.00;-1.00;97935;295;1004683;-34
2023/05/06 09:28:47;;;;;;;14.00;5.50;;;;;;;-128.00;-1.00;-1.00;97935;295;1003240;-33
2023/05/06 09:31:14;;;;;;;9.20;4.40;;;;;;;-128.00;-1.00;-1.00;97858;285;1003138;-31
2023/05/06 09:33:40;;;;;;;6.70;5.00;;;;;;;-128.00;-1.00;-1.00;97863;296;1004057;-32
2023/05/06 09:36:06;;;;;;;12.20;4.60;;;;;;;-128.00;-1.00;-1.00;97906;295;1005021;-33
2023/05/06 09:38:32;;;;;;;13.20;5.40;;;;;;;-128.00;-1.00;-1.00;97906;295;1005109;-36
2023/05/06 09:40:57;;;;;;;7.60;4.80;;;;;;;-128.00;-1.00;-1.00;97941;295;1003523;-33
2023/05/06 09:43:23;;;;;;;8.30;4.80;;;;;;;-128.00;-1.00;-1.00;97911;295;1003860;-36
2023/05/06 09:45:49;;;;;;;13.10;4.60;;;;;;;-128.00;-1.00;-1.00;97825;295;1002998;-33
2023/05/06 09:48:15;;;;;;;4.60;3.50;;;;;;;-128.00;-1.00;-1.00;97999;295;1004897;-33
2023/05/06 09:50:42;;;;;;;6.70;4.20;;;;;;;-128.00;-1.00;-1.00;97814;295;1004469;-32
2023/05/06 09:53:08;;;;;;;10.30;5.50;;;;;;;-128.00;-1.00;-1.00;97838;285;1003590;-32
2023/05/06 09:55:34;;;;;;;11.60;5.90;;;;;;;-128.00;-1.00;-1.00;98003;295;1003037;-33
2023/05/06 09:57:59;;;;;;;9.70;5.90;;;;;;;-128.00;-1.00;-1.00;97810;295;1003255;-33
2023/05/06 10:00:27;;;;;;;10.30;7.30;;;;;;;-128.00;-1.00;-1.00;97882;295;1003100;-36
2023/05/06 10:02:53;;;;;;;10.60;6.10;;;;;;;-128.00;-1.00;-1.00;97898;285;1002668;-35
2023/05/06 10:05:19;;;;;;;10.70;6.40;;;;;;;-128.00;-1.00;-1.00;95454;295;3002311;-35
2023/05/06 10:07:46;;;;;;;10.70;6.40;;;;;;;-128.00;-1.00;-1.00;21710;303;7504801;-33
2023/05/06 10:10:13;;;;;;;18.50;11.50;;;;;;;-128.00;-1.00;-1.00;20969;295;7504521;-36
2023/05/06 10:12:39;;;;;;;24.60;13.60;;;;;;;-128.00;-1.00;-1.00;18891;307;7504428;-36
2023/05/06 10:15:08;;;;;;;17.10;11.30;;;;;;;-128.00;-1.00;-1.00;20484;295;7507167;-36
2023/05/06 10:17:33;;;;;;;25.10;12.60;;;;;;;-128.00;-1.00;-1.00;25174;295;7503944;-34
2023/05/06 10:20:00;;;;;;;19.10;9.00;;;;;;;-128.00;-1.00;-1.00;18475;295;7505962;-36
2023/05/06 10:22:40;;;;;;;11.60;8.30;;;;;;;-128.00;-1.00;-1.00;18469;295;7505215;-34
2023/05/06 10:25:29;;;;;;;12.70;8.40;;;;;;;-128.00;-1.00;-1.00;18477;288;7505123;-35
2023/05/06 10:27:56;;;;;;;14.30;8.00;;;;;;;-128.00;-1.00;-1.00;18903;295;7504767;-34
2023/05/06 10:30:22;;;;;;;23.10;12.60;;;;;;;-128.00;-1.00;-1.00;18925;285;7504144;-37
2023/05/06 10:32:48;;;;;;;32.80;14.10;;;;;;;-128.00;-1.00;-1.00;18972;287;7504081;-36
2023/05/06 10:35:29;;;;;;;8.70;6.90;;;;;;;-128.00;-1.00;-1.00;18896;295;7503929;-36
2023/05/06 10:37:55;;;;;;;16.50;7.80;;;;;;;-128.00;-1.00;-1.00;18486;288;7506236;-33
2023/05/06 10:40:22;;;;;;;12.50;6.60;;;;;;;-128.00;-1.00;-1.00;18878;295;7504614;-36
2023/05/06 10:42:48;;;;;;;14.60;7.90;;;;;;;-128.00;-1.00;-1.00;18895;295;7504595;-37
2023/05/06 10:45:15;;;;;;;19.90;11.40;;;;;;;-128.00;-1.00;-1.00;18873;295;7505005;-34
2023/05/06 10:48:12;;;;;;;15.60;8.50;;;;;;;-128.00;-1.00;-1.00;18506;296;7504776;-36
2023/05/06 10:50:37;;;;;;;12.40;6.70;;;;;;;-128.00;-1.00;-1.00;18492;330;7505044;-34
2023/05/06 10:53:03;;;;;;;15.20;8.20;;;;;;;-128.00;-1.00;-1.00;18470;295;7504380;-36
2023/05/06 10:55:34;;;;;;;12.40;7.80;;;;;;;-128.00;-1.00;-1.00;18470;347;7505007;-37
2023/05/06 10:58:16;;;;;;;14.30;7.00;;;;;;;-128.00;-1.00;-1.00;18474;295;7506212;-35
2023/05/06 11:00:42;;;;;;;16.70;7.90;;;;;;;-128.00;-1.00;-1.00;18465;295;7505952;-36
2023/05/06 11:03:12;;;;;;;26.70;13.00;;;;;;;-128.00;-1.00;-1.00;18465;295;7505792;-38
2023/05/06 11:05:50;;;;;;;9.70;6.10;;;;;;;-128.00;-1.00;-1.00;18484;318;7504893;-38
2023/05/06 11:49:12;;;;;;;23.30;11.70;;;;;;;;;;25216;292;3544266;-33
2023/05/06 11:51:41;;;;;;;23.10;11.50;;;;;;;;;;24859;293;3521549;-37
2023/05/06 11:54:09;;;;;;;16.30;11.80;;;;;;;;;;25599;292;3003756;-35
2023/05/06 11:56:49;;;;;;;17.40;10.10;;;;;;;;;;25340;292;3003838;-35
2023/05/06 11:59:17;;;;;;;23.10;15.30;;;;;;;;;;25251;292;3003392;-37
2023/05/06 12:01:45;;;;;;;14.10;10.40;;;;;;;;;;25282;292;3004958;-34
2023/05/06 12:04:13;;;;;;;27.70;11.20;;;;;;;;;;25687;292;3004003;-37
2023/05/06 12:06:41;;;;;;;22.20;13.50;;;;;;;;;;25615;292;3004974;-34
2023/05/06 12:09:10;;;;;;;20.20;12.20;;;;;;;;;;25586;292;3003623;-37
2023/05/06 12:11:38;;;;;;;30.40;13.40;;;;;;;;;;25248;292;3003469;-35
2023/05/06 12:14:06;;;;;;;18.90;11.20;;;;;;;;;;25324;292;3006408;-35
2023/05/06 12:16:34;;;;;;;17.90;11.00;;;;;;;;;;25247;292;3003653;-35
2023/05/06 12:19:02;;;;;;;35.80;17.00;;;;;;;;;;25554;292;3004054;-38
2023/05/06 12:21:31;;;;;;;54.80;31.60;;;;;;;;;;25623;292;3005344;-35
2023/05/06 12:24:00;;;;;;;46.40;25.80;;;;;;;;;;25265;292;3005968;-38
2023/05/06 12:26:29;;;;;;;109.20;56.50;;;;;;;;;;25271;292;3004789;-34
2023/05/06 12:29:03;;;;;;;100.80;49.30;;;;;;;;;;25246;292;3005738;-35
2023/05/06 12:31:31;;;;;;;36.70;25.60;;;;;;;;;;25242;292;3005158;-35
2023/05/06 12:33:59;;;;;;;27.40;17.40;;;;;;;;;;25493;292;3006153;-33
2023/05/06 12:36:27;;;;;;;26.60;14.10;;;;;;;;;;25461;284;3003482;-34
2023/05/06 12:38:56;;;;;;;23.10;15.10;;;;;;;;;;25452;292;3004494;-39
2023/05/06 12:41:24;;;;;;;17.70;11.20;;;;;;;;;;25256;292;3004760;-37
2023/05/06 12:43:52;;;;;;;14.90;10.10;;;;;;;;;;25245;308;3003588;-39
2023/05/06 12:46:20;;;;;;;11.70;9.50;;;;;;;;;;25536;292;3004289;-38
2023/05/06 12:48:55;;;;;;;15.80;11.00;;;;;;;;;;25625;292;3004922;-35
2023/05/06 12:51:23;;;;;;;23.10;12.20;;;;;;;;;;25259;292;3006294;-37
2023/05/06 12:53:51;;;;;;;13.90;9.70;;;;;;;;;;25413;292;3003747;-35
2023/05/06 12:56:20;;;;;;;20.60;13.20;;;;;;;;;;25429;285;3003926;-37
2023/05/06 12:59:04;;;;;;;14.00;10.70;;;;;;;;;;25237;293;3003549;-34
2023/05/06 13:01:32;;;;;;;12.60;8.10;;;;;;;;;;25243;293;3006190;-36
2023/05/06 13:04:00;;;;;;;8.00;6.90;;;;;;;;;;25582;285;3004938;-35